Terminal Aerodrome Forecast
Issued by NWS Caribou, ME

Current Version | Previous Version | Text Only | Print | Product List | Glossary On
Versions: 1 2 3 4 5 6 7 8 9 10 11 12 13 14 15 16 17
000
FTUS41 KCAR 290550
TAFCAR
TAF
KCAR 290550Z 2906/3006 30008KT P6SM OVC060
     FM291200 27008KT P6SM VCSH BKN035
     FM291600 30015G23KT 1/2SM SHSN FG VV005
     FM291800 30015G25KT P6SM SCT020 BKN035=

USA.gov is the U.S. government's official web portal to all federal, state and local government web resources and services.